Accueil
METAR-TAF:

METAR-TAF

Aéroports :

Aéroport de Lydd

Lydd, Angleterre

latitude: 50-57N, longitude: 000-56E, altitude: 3 m

Observation

Le bulletin a été fait il y a 35 minutes, à 10:20 UTC
Vent 3 kt de direction variable
Température 11°C
Humidité 62%
Pression 1018 hPa
Visibilité 10 km ou plus

METAR: EGMD 031020Z AUTO VRB03KT 9999 BKN038/// OVC045/// 11/04 Q1018

Heure: 11:55 (10:55 UTC)

Prévision

Le bulletin a été fait il y a 2 heures et 56 minutes, à 07:59 UTC
Prévision valable du 03 à 09 UTC au 03 à 18 UTC
Vent 3 kt de direction variable
Visibilité 10 km ou plus
Nuages épars à une hauteur de 4500 ft

TAF: EGMD 030759Z 0309/0318 VRB03KT 9999 SCT045

Observations et prévisions météorologiques de plus de 4000 aéroports (messages METAR et TAF).

Les stations disponibles sont représentées par des disques jaunes et rouges sur la carte.

Passer la souris dessus pour voir le nom de la station.

Cliquer dessus pour voir les observations et prévisions météorologiques.

Pour changer de carte: cliquez sur les boutons verts avec une croix noire pour zoomer, sur le bouton vert avec un tiret pour effectuer un zoom arrière, ou sur les flèches vertes pour les cartes adjacentes.


METAR-TAF: